Time;durP1;ratioP1;P1;durP2;ratioP2;P2;SDS_P1;SDS_P2;PMS_P1;PMS_P2;Temp;Humidity;BMP_temperature;BMP_pressure;BME280_temperature;BME280_humidity;BME280_pressure;Samples;Min_cycle;Max_cycle;Signal;HPM_P1;HPM_P2
2023/01/18 00:02:12;;;;;;;37.50;4.70;;;;;;;;;;5052817;28;20041;-31
2023/01/18 00:04:39;;;;;;;32.25;4.97;;;;;;;;;;5052422;28;20283;-31
2023/01/18 00:07:06;;;;;;;34.80;4.97;;;;;;;;;;5057681;28;20104;-31
2023/01/18 00:09:33;;;;;;;26.60;5.00;;;;;;;;;;5052340;28;20021;-31
2023/01/18 00:12:00;;;;;;;30.92;5.05;;;;;;;;;;5034287;28;20723;-31
2023/01/18 00:14:27;;;;;;;34.95;5.32;;;;;;;;;;5052220;28;20073;-31
2023/01/18 00:16:54;;;;;;;26.98;5.00;;;;;;;;;;5051778;28;20110;-31
2023/01/18 00:19:21;;;;;;;35.15;5.38;;;;;;;;;;5051496;28;20029;-34
2023/01/18 00:21:53;;;;;;;34.65;4.95;;;;;;;;;;5052341;28;20033;-31
2023/01/18 00:24:22;;;;;;;30.92;4.75;;;;;;;;;;5052530;28;20045;-32
2023/01/18 00:26:49;;;;;;;33.80;5.40;;;;;;;;;;5059564;28;20040;-31
2023/01/18 00:29:16;;;;;;;48.90;6.10;;;;;;;;;;5060687;28;20109;-34
2023/01/18 00:31:44;;;;;;;50.65;7.18;;;;;;;;;;5054183;28;20025;-32
2023/01/18 00:34:11;;;;;;;41.35;5.68;;;;;;;;;;5059654;28;20117;-31
2023/01/18 00:36:39;;;;;;;39.25;5.35;;;;;;;;;;5072666;28;20047;-32
2023/01/18 00:39:07;;;;;;;34.88;5.47;;;;;;;;;;5072828;28;20028;-33
2023/01/18 00:43:37;;;;;;;28.60;4.75;;;;;;;;;;5072441;28;20056;-31
2023/01/18 00:44:21;;;;;;;24.88;5.05;;;;;;;;;;5063789;28;20119;-31
2023/01/18 00:46:48;;;;;;;34.67;5.03;;;;;;;;;;5051901;28;20582;-31
2023/01/18 00:49:15;;;;;;;24.30;6.32;;;;;;;;;;5052003;28;20037;-29
2023/01/18 00:51:42;;;;;;;30.70;7.70;;;;;;;;;;5051778;28;20025;-29
2023/01/18 00:54:09;;;;;;;24.63;6.45;;;;;;;;;;5054026;28;20413;-30
2023/01/18 00:56:36;;;;;;;24.15;5.35;;;;;;;;;;5051805;28;20043;-33
2023/01/18 00:59:03;;;;;;;33.05;4.88;;;;;;;;;;5051503;28;20037;-30
2023/01/18 01:01:30;;;;;;;18.05;3.90;;;;;;;;;;5055940;28;20040;-30
2023/01/18 01:06:45;;;;;;;16.27;3.83;;;;;;;;;;5068267;28;20035;-33
2023/01/18 01:09:17;;;;;;;19.05;3.75;;;;;;;;;;5070838;28;20051;-33
2023/01/18 01:12:33;;;;;;;14.50;3.40;;;;;;;;;;5072104;28;20039;-32
2023/01/18 01:28:18;;;;;;;11.60;3.15;;;;;;;;;;5070535;28;20127;-37
2023/01/18 01:30:44;;;;;;;13.77;3.83;;;;;;;;;;5069764;28;20093;-32
2023/01/18 01:33:12;;;;;;;26.17;5.47;;;;;;;;;;5070688;28;20177;-32
2023/01/18 01:35:39;;;;;;;31.02;6.95;;;;;;;;;;5071962;28;20025;-37
2023/01/18 01:38:06;;;;;;;29.92;7.43;;;;;;;;;;5072145;28;20016;-31
2023/01/18 01:40:33;;;;;;;36.42;9.05;;;;;;;;;;5071937;28;20024;-31
2023/01/18 01:43:00;;;;;;;30.75;9.68;;;;;;;;;;5071917;28;20024;-33
2023/01/18 01:45:30;;;;;;;46.60;12.32;;;;;;;;;;5072132;28;20497;-32
2023/01/18 01:47:57;;;;;;;60.65;17.77;;;;;;;;;;5072182;28;20028;-33
2023/01/18 01:50:37;;;;;;;41.45;12.32;;;;;;;;;;5072054;28;20013;-32
2023/01/18 01:53:04;;;;;;;61.15;12.40;;;;;;;;;;5071252;28;20024;-33
2023/01/18 01:55:37;;;;;;;56.28;13.73;;;;;;;;;;5072040;28;20044;-32
2023/01/18 01:58:09;;;;;;;55.85;13.65;;;;;;;;;;5071410;28;20038;-33
2023/01/18 02:00:36;;;;;;;55.10;13.98;;;;;;;;;;5070940;28;20044;-33
2023/01/18 02:03:07;;;;;;;45.03;11.35;;;;;;;;;;5070983;28;20113;-33
2023/01/18 02:05:36;;;;;;;44.20;10.65;;;;;;;;;;5071803;28;20028;-36
2023/01/18 02:08:10;;;;;;;42.42;11.40;;;;;;;;;;5071942;28;20068;-33
2023/01/18 02:10:38;;;;;;;51.13;14.82;;;;;;;;;;5071354;28;20433;-31
2023/01/18 02:13:08;;;;;;;57.60;19.60;;;;;;;;;;5071547;28;20031;-36
2023/01/18 02:15:51;;;;;;;62.17;19.50;;;;;;;;;;5070905;28;20028;-32
2023/01/18 02:18:18;;;;;;;60.25;18.27;;;;;;;;;;5070638;28;20060;-31
2023/01/18 02:20:45;;;;;;;46.88;15.40;;;;;;;;;;5069815;28;20044;-30
2023/01/18 02:23:51;;;;;;;42.03;12.82;;;;;;;;;;5070834;28;20016;-30
2023/01/18 02:26:41;;;;;;;44.13;13.82;;;;;;;;;;5028736;28;20030;-31
2023/01/18 02:29:37;;;;;;;38.53;12.30;;;;;;;;;;5028537;28;20526;-30
2023/01/18 02:32:24;;;;;;;35.08;11.70;;;;;;;;;;5055123;28;20494;-30
2023/01/18 02:35:09;;;;;;;37.55;11.60;;;;;;;;;;5040024;28;20380;-31
2023/01/18 02:37:51;;;;;;;45.08;12.73;;;;;;;;;;5059282;28;20024;-30
2023/01/18 02:40:47;;;;;;;36.97;11.23;;;;;;;;;;5071172;28;20155;-32
2023/01/18 02:48:47;;;;;;;35.67;9.40;;;;;;;;;;5071674;28;20440;-32
2023/01/18 02:51:14;;;;;;;32.35;9.38;;;;;;;;;;5053676;28;20033;-31
2023/01/18 02:53:42;;;;;;;26.42;7.93;;;;;;;;;;5071566;28;20459;-30
2023/01/18 02:56:32;;;;;;;26.65;8.82;;;;;;;;;;5071710;28;20032;-30
2023/01/18 02:59:15;;;;;;;31.13;8.43;;;;;;;;;;5066347;28;20046;-32
2023/01/18 03:01:42;;;;;;;27.95;9.27;;;;;;;;;;5071484;28;20394;-30
2023/01/18 03:04:18;;;;;;;25.15;9.40;;;;;;;;;;5071312;28;20699;-30
2023/01/18 03:06:48;;;;;;;28.65;8.65;;;;;;;;;;5071557;28;20099;-32
2023/01/18 03:09:17;;;;;;;26.70;8.48;;;;;;;;;;5071537;28;20052;-30
2023/01/18 03:12:10;;;;;;;21.95;7.65;;;;;;;;;;5071135;28;20035;-31
2023/01/18 03:14:56;;;;;;;21.17;6.95;;;;;;;;;;5055467;28;20140;-31
2023/01/18 03:17:25;;;;;;;18.40;6.60;;;;;;;;;;5071474;28;20016;-31
2023/01/18 03:20:04;;;;;;;15.05;6.15;;;;;;;;;;5071324;28;20387;-31
2023/01/18 03:25:22;;;;;;;18.48;5.28;;;;;;;;;;5071654;28;20090;-31
2023/01/18 03:36:11;;;;;;;11.20;4.70;;;;;;;;;;5075201;28;20095;-31
2023/01/18 03:38:41;;;;;;;13.18;4.72;;;;;;;;;;5074750;28;20550;-31
2023/01/18 03:41:10;;;;;;;10.82;4.30;;;;;;;;;;5074763;28;20119;-31
2023/01/18 03:43:37;;;;;;;13.60;4.32;;;;;;;;;;5074742;28;20021;-38
2023/01/18 03:46:04;;;;;;;17.90;4.22;;;;;;;;;;5074140;28;20116;-32
2023/01/18 03:48:32;;;;;;;12.02;3.67;;;;;;;;;;5074679;28;20816;-31
2023/01/18 03:51:17;;;;;;;14.65;3.85;;;;;;;;;;5074531;28;20043;-31
2023/01/18 03:54:16;;;;;;;16.40;3.90;;;;;;;;;;5074515;28;20040;-31
2023/01/18 03:56:54;;;;;;;16.65;3.67;;;;;;;;;;5051717;28;20041;-36
2023/01/18 03:59:21;;;;;;;16.85;4.38;;;;;;;;;;5074496;28;20028;-31
2023/01/18 04:01:48;;;;;;;11.38;4.03;;;;;;;;;;5074264;28;20044;-31
2023/01/18 04:04:15;;;;;;;12.13;4.13;;;;;;;;;;5072418;28;20127;-33
2023/01/18 04:06:42;;;;;;;18.95;3.72;;;;;;;;;;5070202;28;20029;-31
2023/01/18 04:09:10;;;;;;;17.85;3.70;;;;;;;;;;5071453;28;20510;-30
2023/01/18 04:11:37;;;;;;;9.90;3.28;;;;;;;;;;5072426;28;20029;-33
2023/01/18 04:14:05;;;;;;;13.20;3.42;;;;;;;;;;5072078;28;20025;-35
2023/01/18 04:16:32;;;;;;;10.80;3.22;;;;;;;;;;5071699;28;20522;-32
2023/01/18 04:18:58;;;;;;;9.15;3.05;;;;;;;;;;5071454;28;20043;-37
2023/01/18 04:21:25;;;;;;;8.93;2.55;;;;;;;;;;5072816;28;20201;-30
2023/01/18 04:23:52;;;;;;;9.80;2.42;;;;;;;;;;5071152;28;20595;-33
2023/01/18 04:26:19;;;;;;;7.13;1.70;;;;;;;;;;5071298;28;20033;-31
2023/01/18 04:28:46;;;;;;;6.50;1.67;;;;;;;;;;5072942;28;20569;-32
2023/01/18 04:31:13;;;;;;;4.35;1.27;;;;;;;;;;5072598;28;20025;-33
2023/01/18 04:33:40;;;;;;;4.90;1.30;;;;;;;;;;5073001;28;20560;-30
2023/01/18 04:36:07;;;;;;;7.40;1.20;;;;;;;;;;5072953;28;20090;-31
2023/01/18 04:38:35;;;;;;;7.13;1.63;;;;;;;;;;5072345;28;20039;-31
2023/01/18 04:41:05;;;;;;;4.43;1.50;;;;;;;;;;5072658;28;20037;-32
2023/01/18 04:43:32;;;;;;;2.97;1.20;;;;;;;;;;5053894;28;20502;-34
2023/01/18 04:45:59;;;;;;;4.60;1.65;;;;;;;;;;5072920;28;20024;-32
2023/01/18 04:48:26;;;;;;;10.02;1.80;;;;;;;;;;5073077;28;20033;-31
2023/01/18 04:50:53;;;;;;;8.23;1.50;;;;;;;;;;5072895;28;20409;-32
2023/01/18 04:53:20;;;;;;;7.85;1.40;;;;;;;;;;5072773;28;20028;-31
2023/01/18 04:55:47;;;;;;;5.55;1.17;;;;;;;;;;5072629;28;20094;-34
2023/01/18 04:58:14;;;;;;;3.65;1.20;;;;;;;;;;5072739;28;20113;-30
2023/01/18 05:00:41;;;;;;;3.88;1.20;;;;;;;;;;5072685;28;20055;-31
2023/01/18 05:03:09;;;;;;;4.72;1.70;;;;;;;;;;5072006;28;20052;-30
2023/01/18 05:05:36;;;;;;;2.85;1.45;;;;;;;;;;5073035;28;20490;-31
2023/01/18 05:08:04;;;;;;;2.63;1.50;;;;;;;;;;5073149;28;20029;-35
2023/01/18 05:10:32;;;;;;;4.18;1.60;;;;;;;;;;5073070;28;20071;-32
2023/01/18 05:12:59;;;;;;;3.22;1.60;;;;;;;;;;5073021;28;20028;-33
2023/01/18 05:15:26;;;;;;;2.72;1.65;;;;;;;;;;5072710;28;20056;-32
2023/01/18 05:17:53;;;;;;;4.00;1.80;;;;;;;;;;5072825;28;20041;-31
2023/01/18 05:20:20;;;;;;;3.88;1.80;;;;;;;;;;5072861;28;20382;-31
2023/01/18 05:22:47;;;;;;;5.05;1.80;;;;;;;;;;5072687;28;20048;-33
2023/01/18 05:25:14;;;;;;;6.32;2.08;;;;;;;;;;5072657;28;20020;-31
2023/01/18 05:27:41;;;;;;;5.00;1.98;;;;;;;;;;5072731;28;20040;-35
2023/01/18 05:30:09;;;;;;;9.05;2.28;;;;;;;;;;5072707;28;20027;-30
2023/01/18 05:32:36;;;;;;;4.72;2.10;;;;;;;;;;5072439;28;20098;-31
2023/01/18 05:35:03;;;;;;;3.85;2.42;;;;;;;;;;5072596;28;20028;-30
2023/01/18 05:37:30;;;;;;;5.43;2.15;;;;;;;;;;5072472;28;20028;-33
2023/01/18 05:39:58;;;;;;;5.97;2.55;;;;;;;;;;5072569;28;20047;-30
2023/01/18 05:42:25;;;;;;;5.13;2.60;;;;;;;;;;5072299;28;20090;-33
2023/01/18 05:44:52;;;;;;;8.95;2.38;;;;;;;;;;5072336;28;20402;-31
2023/01/18 05:47:18;;;;;;;5.60;2.42;;;;;;;;;;5072470;28;20599;-32
2023/01/18 05:49:45;;;;;;;4.72;1.98;;;;;;;;;;5072310;28;20024;-31
2023/01/18 05:52:12;;;;;;;3.88;2.10;;;;;;;;;;5072206;28;20135;-31
2023/01/18 05:54:39;;;;;;;7.68;2.30;;;;;;;;;;5072179;28;20035;-33
2023/01/18 05:57:06;;;;;;;3.80;2.22;;;;;;;;;;5072371;28;20103;-31
2023/01/18 05:59:34;;;;;;;4.40;2.20;;;;;;;;;;5072297;28;20024;-30
2023/01/18 06:02:01;;;;;;;4.15;2.10;;;;;;;;;;5061721;28;20052;-36
2023/01/18 06:04:27;;;;;;;3.35;1.83;;;;;;;;;;5070760;28;20200;-30
2023/01/18 06:06:55;;;;;;;6.45;2.15;;;;;;;;;;5071938;28;20072;-31
2023/01/18 06:09:22;;;;;;;4.38;2.25;;;;;;;;;;5072264;28;20035;-30
2023/01/18 06:11:49;;;;;;;6.00;2.15;;;;;;;;;;5072099;28;20052;-32
2023/01/18 06:14:16;;;;;;;5.80;2.08;;;;;;;;;;5072345;28;20040;-31
2023/01/18 06:16:43;;;;;;;3.35;2.10;;;;;;;;;;5054102;28;20036;-31
2023/01/18 06:19:09;;;;;;;3.05;1.98;;;;;;;;;;5071947;28;20035;-30
2023/01/18 06:21:36;;;;;;;5.60;1.92;;;;;;;;;;5071839;28;20039;-32
2023/01/18 06:24:03;;;;;;;4.45;1.90;;;;;;;;;;5071867;28;20039;-32
2023/01/18 06:26:30;;;;;;;3.80;1.90;;;;;;;;;;5071905;28;20487;-30
2023/01/18 06:28:58;;;;;;;3.88;1.90;;;;;;;;;;5071959;28;20517;-31
2023/01/18 06:31:25;;;;;;;2.00;1.48;;;;;;;;;;5071957;28;20033;-30
2023/01/18 06:33:52;;;;;;;2.10;1.60;;;;;;;;;;5071787;28;20410;-30
2023/01/18 06:36:18;;;;;;;3.15;1.58;;;;;;;;;;5071905;28;20173;-30
2023/01/18 06:38:45;;;;;;;1.92;1.52;;;;;;;;;;5071833;28;20032;-32
2023/01/18 06:41:14;;;;;;;2.90;1.55;;;;;;;;;;5071706;28;20111;-32
2023/01/18 06:43:41;;;;;;;3.83;2.00;;;;;;;;;;5071697;28;20103;-31
2023/01/18 06:46:10;;;;;;;2.83;1.50;;;;;;;;;;5071758;28;20031;-31
2023/01/18 06:48:37;;;;;;;2.97;1.90;;;;;;;;;;5071961;28;20068;-32
2023/01/18 06:51:04;;;;;;;3.88;1.75;;;;;;;;;;5071821;28;20263;-31
2023/01/18 06:53:31;;;;;;;4.03;2.00;;;;;;;;;;5053560;28;20025;-31
2023/01/18 06:56:00;;;;;;;2.30;1.67;;;;;;;;;;5071631;28;20494;-33
2023/01/18 06:58:29;;;;;;;5.70;1.95;;;;;;;;;;5071585;28;20390;-33
2023/01/18 07:00:57;;;;;;;3.67;1.80;;;;;;;;;;5071442;28;20045;-31
2023/01/18 07:03:25;;;;;;;5.22;1.90;;;;;;;;;;5071396;28;20144;-31
2023/01/18 07:05:53;;;;;;;6.60;2.30;;;;;;;;;;5071643;28;20048;-32
2023/01/18 07:08:20;;;;;;;3.30;1.70;;;;;;;;;;5074341;28;20398;-32
2023/01/18 07:10:48;;;;;;;2.55;1.63;;;;;;;;;;5075439;28;20082;-31
2023/01/18 07:13:15;;;;;;;3.03;1.70;;;;;;;;;;5075324;28;20076;-33
2023/01/18 07:15:42;;;;;;;3.40;1.45;;;;;;;;;;5075314;28;20032;-31
2023/01/18 07:18:09;;;;;;;3.08;1.90;;;;;;;;;;5075190;28;20031;-31
2023/01/18 07:20:36;;;;;;;3.22;1.73;;;;;;;;;;5075210;28;20119;-33
2023/01/18 07:23:03;;;;;;;3.15;1.60;;;;;;;;;;5075119;28;20040;-33
2023/01/18 07:25:30;;;;;;;4.93;2.15;;;;;;;;;;5075192;28;20028;-31
2023/01/18 07:27:57;;;;;;;4.38;1.80;;;;;;;;;;5075086;28;20051;-33
2023/01/18 07:30:24;;;;;;;4.47;2.00;;;;;;;;;;5075143;28;20032;-31
2023/01/18 07:32:52;;;;;;;3.97;1.80;;;;;;;;;;5074802;28;20059;-32
2023/01/18 07:35:23;;;;;;;3.97;1.80;;;;;;;;;;5075043;28;20506;-31
2023/01/18 07:37:53;;;;;;;2.60;1.75;;;;;;;;;;5074976;28;20024;-31
2023/01/18 07:40:21;;;;;;;3.22;1.50;;;;;;;;;;5074765;28;20067;-34
2023/01/18 07:42:48;;;;;;;2.45;1.50;;;;;;;;;;5074804;28;20111;-33
2023/01/18 07:45:15;;;;;;;4.40;1.77;;;;;;;;;;5074835;28;20030;-32
2023/01/18 07:47:45;;;;;;;2.30;1.70;;;;;;;;;;5074807;28;20172;-34
2023/01/18 07:50:13;;;;;;;2.85;1.70;;;;;;;;;;5074706;28;20087;-32
2023/01/18 07:52:40;;;;;;;3.25;1.88;;;;;;;;;;5074451;28;20033;-32
2023/01/18 07:55:07;;;;;;;2.60;1.80;;;;;;;;;;5074653;28;20029;-31
2023/01/18 07:57:34;;;;;;;3.05;1.83;;;;;;;;;;5074582;28;20093;-30
2023/01/18 08:00:01;;;;;;;4.15;2.00;;;;;;;;;;5074582;28;20490;-32
2023/01/18 08:02:28;;;;;;;4.55;1.73;;;;;;;;;;5074072;28;20067;-35
2023/01/18 08:04:55;;;;;;;3.33;1.60;;;;;;;;;;5074374;28;20032;-30
2023/01/18 08:07:22;;;;;;;2.70;1.70;;;;;;;;;;5074427;28;20078;-32
2023/01/18 08:09:50;;;;;;;4.00;2.13;;;;;;;;;;5074296;28;20024;-30
2023/01/18 08:12:17;;;;;;;2.42;1.70;;;;;;;;;;5074258;28;20108;-33
2023/01/18 08:14:47;;;;;;;2.65;1.80;;;;;;;;;;5074275;28;20025;-31
2023/01/18 08:17:14;;;;;;;3.75;2.10;;;;;;;;;;5074246;28;20059;-30
2023/01/18 08:19:41;;;;;;;3.63;1.70;;;;;;;;;;5074061;28;20021;-31
2023/01/18 08:22:08;;;;;;;4.28;1.90;;;;;;;;;;5073929;28;20064;-31
2023/01/18 08:24:35;;;;;;;5.90;2.10;;;;;;;;;;5074152;28;20562;-33
2023/01/18 08:27:02;;;;;;;2.35;1.80;;;;;;;;;;5074077;28;20024;-34
2023/01/18 08:29:29;;;;;;;3.85;2.20;;;;;;;;;;5073915;28;20028;-31
2023/01/18 08:31:58;;;;;;;3.92;2.20;;;;;;;;;;5073746;28;20043;-31
2023/01/18 08:34:25;;;;;;;2.95;1.88;;;;;;;;;;5073811;28;20028;-31
2023/01/18 08:36:52;;;;;;;4.32;1.90;;;;;;;;;;5073910;28;20028;-34
2023/01/18 08:39:19;;;;;;;2.95;1.80;;;;;;;;;;5073835;28;20441;-31
2023/01/18 08:41:48;;;;;;;2.70;1.60;;;;;;;;;;5073434;28;20024;-30
2023/01/18 08:44:15;;;;;;;4.53;2.00;;;;;;;;;;5073640;28;20041;-30
2023/01/18 08:46:42;;;;;;;6.40;2.17;;;;;;;;;;5072941;28;20099;-31
2023/01/18 08:49:10;;;;;;;5.60;2.10;;;;;;;;;;5073136;28;20035;-31
2023/01/18 08:51:37;;;;;;;3.17;2.10;;;;;;;;;;5073189;28;20097;-31
2023/01/18 08:54:06;;;;;;;3.60;2.15;;;;;;;;;;5073496;28;20033;-30
2023/01/18 08:56:33;;;;;;;3.25;2.50;;;;;;;;;;5073370;28;20636;-31
2023/01/18 08:59:01;;;;;;;4.00;1.80;;;;;;;;;;5073355;28;20052;-31
2023/01/18 09:01:28;;;;;;;3.00;2.00;;;;;;;;;;5073279;28;20036;-30
2023/01/18 09:03:57;;;;;;;6.30;2.28;;;;;;;;;;5073223;28;20056;-32
2023/01/18 09:06:24;;;;;;;3.05;2.00;;;;;;;;;;5073160;28;20101;-32
2023/01/18 09:08:51;;;;;;;3.08;2.10;;;;;;;;;;5073253;28;20402;-31
2023/01/18 09:11:18;;;;;;;3.95;2.33;;;;;;;;;;5072996;28;20036;-31
2023/01/18 09:13:47;;;;;;;4.78;2.50;;;;;;;;;;5073078;28;20078;-32
2023/01/18 09:16:14;;;;;;;4.15;2.03;;;;;;;;;;5072985;28;20060;-31
2023/01/18 09:18:41;;;;;;;5.57;2.50;;;;;;;;;;5073041;28;20028;-32
2023/01/18 09:21:09;;;;;;;5.75;2.58;;;;;;;;;;5072900;28;20043;-31
2023/01/18 09:23:38;;;;;;;7.38;2.55;;;;;;;;;;5072832;28;20106;-31
2023/01/18 09:26:13;;;;;;;6.43;2.58;;;;;;;;;;5072732;28;20089;-31
2023/01/18 09:28:40;;;;;;;5.93;2.80;;;;;;;;;;5072721;28;20045;-31
2023/01/18 09:31:11;;;;;;;4.57;2.40;;;;;;;;;;5072314;28;20584;-32
2023/01/18 09:33:38;;;;;;;14.45;2.83;;;;;;;;;;5072707;28;20081;-34
2023/01/18 09:36:08;;;;;;;9.07;3.17;;;;;;;;;;5072725;28;20398;-33
2023/01/18 09:38:35;;;;;;;11.20;2.88;;;;;;;;;;5072444;28;20032;-31
2023/01/18 09:41:04;;;;;;;8.25;3.22;;;;;;;;;;5072517;28;20032;-34
2023/01/18 09:43:32;;;;;;;5.38;2.97;;;;;;;;;;5072448;28;20024;-31
2023/01/18 09:46:00;;;;;;;5.30;3.10;;;;;;;;;;5072505;28;20090;-32
2023/01/18 09:48:34;;;;;;;5.07;2.83;;;;;;;;;;5072391;28;20040;-30
2023/01/18 09:51:05;;;;;;;7.03;2.80;;;;;;;;;;5072227;28;20104;-32
2023/01/18 09:53:35;;;;;;;6.18;3.03;;;;;;;;;;5072400;28;20028;-32
2023/01/18 09:56:18;;;;;;;5.47;3.00;;;;;;;;;;5054270;28;20112;-31
2023/01/18 09:58:57;;;;;;;6.72;3.08;;;;;;;;;;5072349;28;20033;-30
2023/01/18 10:01:28;;;;;;;6.00;2.63;;;;;;;;;;5072044;28;20043;-32
2023/01/18 10:04:01;;;;;;;8.60;2.65;;;;;;;;;;5072037;28;20044;-30
2023/01/18 10:06:43;;;;;;;4.63;2.92;;;;;;;;;;5072300;28;20506;-30
2023/01/18 10:09:33;;;;;;;4.63;2.92;;;;;;;;;;5072309;28;20028;-30
2023/01/18 10:12:01;;;;;;;3.78;2.67;;;;;;;;;;5066602;28;20051;-30
2023/01/18 10:14:41;;;;;;;7.22;3.05;;;;;;;;;;5072118;28;20033;-32
2023/01/18 10:17:13;;;;;;;4.22;2.80;;;;;;;;;;5072118;28;20025;-31
2023/01/18 10:19:41;;;;;;;7.60;3.20;;;;;;;;;;5072201;28;20059;-31
2023/01/18 10:22:08;;;;;;;6.57;3.40;;;;;;;;;;5071842;28;20458;-33
2023/01/18 10:24:47;;;;;;;7.32;3.17;;;;;;;;;;5072097;28;20029;-33
2023/01/18 10:27:34;;;;;;;7.25;2.90;;;;;;;;;;5072044;28;20032;-33
2023/01/18 10:30:13;;;;;;;5.45;3.10;;;;;;;;;;5071816;28;20498;-32
2023/01/18 10:32:42;;;;;;;4.90;3.15;;;;;;;;;;5071698;28;20084;-33
2023/01/18 10:35:38;;;;;;;6.68;2.95;;;;;;;;;;5071862;28;20546;-34
2023/01/18 10:38:08;;;;;;;7.28;2.85;;;;;;;;;;5063017;28;20043;-31
2023/01/18 10:40:37;;;;;;;4.18;2.85;;;;;;;;;;5071805;28;20039;-31
2023/01/18 10:43:09;;;;;;;5.45;2.88;;;;;;;;;;5073656;28;20032;-30
2023/01/18 10:45:36;;;;;;;4.15;3.03;;;;;;;;;;5072071;28;20032;-33
2023/01/18 10:48:24;;;;;;;5.60;3.05;;;;;;;;;;5074958;28;20024;-33
2023/01/18 10:50:52;;;;;;;5.45;3.22;;;;;;;;;;5071907;28;20024;-31
2023/01/18 10:53:30;;;;;;;7.78;2.97;;;;;;;;;;5075395;28;20105;-31
2023/01/18 10:56:20;;;;;;;8.45;3.60;;;;;;;;;;5075555;28;20067;-35
2023/01/18 10:58:50;;;;;;;8.68;3.65;;;;;;;;;;5065597;28;20186;-33
2023/01/18 11:01:37;;;;;;;5.65;2.80;;;;;;;;;;5075473;28;20513;-31
2023/01/18 11:04:06;;;;;;;5.82;3.30;;;;;;;;;;5075503;28;20055;-33
2023/01/18 11:06:46;;;;;;;5.82;2.95;;;;;;;;;;5075590;28;20044;-32
2023/01/18 11:09:31;;;;;;;4.78;2.80;;;;;;;;;;5075595;28;20471;-33
2023/01/18 11:15:13;;;;;;;8.23;3.10;;;;;;;;;;5075805;28;20818;-31
2023/01/18 11:17:41;;;;;;;7.28;3.08;;;;;;;;;;5057351;28;20032;-30
2023/01/18 11:20:15;;;;;;;4.60;2.60;;;;;;;;;;5075400;28;20032;-31
2023/01/18 11:22:54;;;;;;;4.60;2.63;;;;;;;;;;5075186;28;20048;-32
2023/01/18 11:25:21;;;;;;;8.32;2.75;;;;;;;;;;5075441;28;20522;-31
2023/01/18 11:27:49;;;;;;;3.78;2.63;;;;;;;;;;5075100;28;20035;-31
2023/01/18 11:30:20;;;;;;;6.38;2.20;;;;;;;;;;5075135;28;20024;-30
2023/01/18 11:32:47;;;;;;;3.38;2.22;;;;;;;;;;5074973;28;20077;-33
2023/01/18 11:35:33;;;;;;;4.22;2.50;;;;;;;;;;5075091;28;20044;-31
2023/01/18 11:38:01;;;;;;;6.57;2.38;;;;;;;;;;5054968;28;20036;-30
2023/01/18 11:40:33;;;;;;;4.10;2.10;;;;;;;;;;5054849;28;20108;-31
2023/01/18 11:43:21;;;;;;;5.07;2.13;;;;;;;;;;5054856;28;20458;-32
2023/01/18 11:45:58;;;;;;;5.32;2.00;;;;;;;;;;5054752;28;20036;-30
2023/01/18 11:48:31;;;;;;;6.53;2.28;;;;;;;;;;5054705;28;20138;-32
2023/01/18 11:51:18;;;;;;;6.13;2.13;;;;;;;;;;5054637;28;20048;-31
2023/01/18 11:54:04;;;;;;;2.58;1.75;;;;;;;;;;5071884;28;20044;-33
2023/01/18 11:56:38;;;;;;;3.00;1.73;;;;;;;;;;5074373;28;20020;-32
2023/01/18 11:59:13;;;;;;;2.88;1.42;;;;;;;;;;5071559;28;20127;-33
2023/01/18 12:01:58;;;;;;;2.72;1.95;;;;;;;;;;5073919;28;20032;-31
2023/01/18 12:04:32;;;;;;;4.88;2.10;;;;;;;;;;5073518;28;20040;-33
2023/01/18 12:07:11;;;;;;;3.60;1.70;;;;;;;;;;5073859;28;20518;-31
2023/01/18 12:09:44;;;;;;;5.10;1.98;;;;;;;;;;5074057;28;20021;-35
2023/01/18 12:12:14;;;;;;;4.57;2.13;;;;;;;;;;5073561;28;20025;-30
2023/01/18 12:14:59;;;;;;;3.13;1.83;;;;;;;;;;5073792;28;20108;-30
2023/01/18 12:17:29;;;;;;;3.05;1.80;;;;;;;;;;5072756;28;20031;-30
2023/01/18 12:20:14;;;;;;;11.00;2.25;;;;;;;;;;5071342;28;20032;-33
2023/01/18 12:22:43;;;;;;;5.30;1.80;;;;;;;;;;5071529;28;20068;-31
2023/01/18 12:25:19;;;;;;;3.90;1.42;;;;;;;;;;5073654;28;20040;-33
2023/01/18 12:27:56;;;;;;;8.27;2.28;;;;;;;;;;5073648;28;20028;-33
2023/01/18 12:30:32;;;;;;;7.20;1.90;;;;;;;;;;5073484;28;20443;-31
2023/01/18 12:33:22;;;;;;;8.70;2.25;;;;;;;;;;5073648;28;20085;-31
2023/01/18 12:36:18;;;;;;;3.55;1.80;;;;;;;;;;5054199;28;20037;-31
2023/01/18 12:38:51;;;;;;;11.05;2.70;;;;;;;;;;5036592;28;20042;-31
2023/01/18 12:41:26;;;;;;;7.63;2.05;;;;;;;;;;5073337;28;20037;-32
2023/01/18 12:44:11;;;;;;;4.25;1.63;;;;;;;;;;5073311;28;20043;-33
2023/01/18 12:46:44;;;;;;;5.07;1.88;;;;;;;;;;5070667;28;20402;-31
2023/01/18 12:49:17;;;;;;;4.28;1.70;;;;;;;;;;5073444;28;20538;-32
2023/01/18 12:51:46;;;;;;;7.93;1.75;;;;;;;;;;5073494;28;20045;-32
2023/01/18 12:54:13;;;;;;;4.80;1.38;;;;;;;;;;5073196;28;20032;-31
2023/01/18 12:56:48;;;;;;;14.63;2.28;;;;;;;;;;5073148;28;20398;-33
2023/01/18 12:59:17;;;;;;;9.50;2.30;;;;;;;;;;5073128;28;20043;-33
2023/01/18 13:01:50;;;;;;;6.43;1.95;;;;;;;;;;5073022;28;20562;-31
2023/01/18 13:04:23;;;;;;;10.35;2.00;;;;;;;;;;5059564;28;20045;-32
2023/01/18 13:06:51;;;;;;;9.90;2.42;;;;;;;;;;5071940;28;20020;-31
2023/01/18 13:09:31;;;;;;;13.15;2.05;;;;;;;;;;5072242;28;20060;-33
2023/01/18 13:12:00;;;;;;;10.77;2.40;;;;;;;;;;5072300;28;20078;-32
2023/01/18 13:14:41;;;;;;;9.27;2.22;;;;;;;;;;5072085;28;20115;-35
2023/01/18 13:17:08;;;;;;;12.57;2.78;;;;;;;;;;5071879;28;20421;-33
2023/01/18 13:19:57;;;;;;;14.45;2.65;;;;;;;;;;5072235;28;20115;-32
2023/01/18 13:22:30;;;;;;;12.65;2.70;;;;;;;;;;5071931;28;20040;-32
2023/01/18 13:25:00;;;;;;;7.53;2.35;;;;;;;;;;5072077;28;20115;-33
2023/01/18 13:27:27;;;;;;;16.30;3.03;;;;;;;;;;5071852;28;20035;-35
2023/01/18 13:29:54;;;;;;;9.85;3.35;;;;;;;;;;5071994;28;20029;-32
2023/01/18 13:32:21;;;;;;;14.65;2.92;;;;;;;;;;5071834;28;20078;-32
2023/01/18 13:34:56;;;;;;;8.30;2.78;;;;;;;;;;5071800;28;20025;-32
2023/01/18 13:37:39;;;;;;;14.48;3.10;;;;;;;;;;5071902;28;20020;-31
2023/01/18 13:40:07;;;;;;;12.85;2.88;;;;;;;;;;5061109;28;20064;-31
2023/01/18 13:42:36;;;;;;;12.95;2.75;;;;;;;;;;5071963;28;20044;-29
2023/01/18 13:45:13;;;;;;;12.32;2.97;;;;;;;;;;5071915;28;20383;-31
2023/01/18 13:47:46;;;;;;;16.15;3.58;;;;;;;;;;5072153;28;20384;-31
2023/01/18 13:50:31;;;;;;;22.88;3.70;;;;;;;;;;5071982;28;20043;-30
2023/01/18 13:53:13;;;;;;;18.00;3.47;;;;;;;;;;5071422;28;20490;-30
2023/01/18 13:55:47;;;;;;;24.15;3.90;;;;;;;;;;5053680;28;20036;-33
2023/01/18 13:58:20;;;;;;;28.25;4.38;;;;;;;;;;5065956;28;20048;-30
2023/01/18 14:00:48;;;;;;;26.38;3.80;;;;;;;;;;5071013;28;20437;-31
2023/01/18 14:03:16;;;;;;;18.73;3.60;;;;;;;;;;5071218;28;20065;-30
2023/01/18 14:05:47;;;;;;;19.13;3.45;;;;;;;;;;5072354;28;20066;-32
2023/01/18 14:08:21;;;;;;;23.58;3.88;;;;;;;;;;5071370;28;20060;-32
2023/01/18 14:10:53;;;;;;;18.67;3.53;;;;;;;;;;5071159;28;20036;-31
2023/01/18 14:13:40;;;;;;;18.52;3.67;;;;;;;;;;5071226;28;20083;-33
2023/01/18 14:16:15;;;;;;;19.85;3.88;;;;;;;;;;5071373;28;20028;-35
2023/01/18 14:18:49;;;;;;;25.23;3.75;;;;;;;;;;5071793;28;20036;-35
2023/01/18 14:21:25;;;;;;;16.83;3.60;;;;;;;;;;5071416;28;20036;-32
2023/01/18 14:24:01;;;;;;;14.07;3.00;;;;;;;;;;5070892;28;20074;-33
2023/01/18 14:26:29;;;;;;;17.60;3.30;;;;;;;;;;5050259;28;20464;-32
2023/01/18 14:29:19;;;;;;;19.05;3.95;;;;;;;;;;5071079;28;20027;-33
2023/01/18 14:31:48;;;;;;;23.33;3.42;;;;;;;;;;5059666;28;20032;-37
2023/01/18 14:34:30;;;;;;;19.70;3.70;;;;;;;;;;5052043;28;20387;-33
2023/01/18 14:36:57;;;;;;;20.00;3.17;;;;;;;;;;5067097;28;20056;-35
2023/01/18 14:39:24;;;;;;;20.70;3.30;;;;;;;;;;5069632;28;20109;-34
2023/01/18 14:41:54;;;;;;;21.50;3.22;;;;;;;;;;5069611;28;20028;-30
2023/01/18 14:44:22;;;;;;;24.60;3.90;;;;;;;;;;5069762;28;20037;-30
2023/01/18 14:46:53;;;;;;;16.88;3.67;;;;;;;;;;5069255;28;20490;-30
2023/01/18 14:49:33;;;;;;;21.98;3.60;;;;;;;;;;5070217;28;20028;-30
2023/01/18 14:52:01;;;;;;;26.95;4.28;;;;;;;;;;5068037;28;20037;-30
2023/01/18 14:54:29;;;;;;;27.13;4.88;;;;;;;;;;5070161;28;20028;-30
2023/01/18 14:57:03;;;;;;;33.47;5.63;;;;;;;;;;5067326;28;20047;-30
2023/01/18 14:59:31;;;;;;;37.40;6.07;;;;;;;;;;5068818;28;20364;-30
2023/01/18 15:02:02;;;;;;;39.35;6.70;;;;;;;;;;5068312;28;20458;-32
2023/01/18 15:04:31;;;;;;;26.40;6.18;;;;;;;;;;5068462;28;20122;-33
2023/01/18 15:07:14;;;;;;;34.80;6.90;;;;;;;;;;5067411;28;20036;-30
2023/01/18 15:09:43;;;;;;;33.83;7.07;;;;;;;;;;5067922;28;20112;-32
2023/01/18 15:12:11;;;;;;;32.78;6.80;;;;;;;;;;5068285;28;20052;-31
2023/01/18 15:14:42;;;;;;;33.85;6.78;;;;;;;;;;5069196;28;20024;-30
2023/01/18 15:17:11;;;;;;;27.38;7.07;;;;;;;;;;5050820;28;20039;-31
2023/01/18 15:19:40;;;;;;;37.83;6.47;;;;;;;;;;5069332;28;20471;-30
2023/01/18 15:22:10;;;;;;;27.67;5.97;;;;;;;;;;5068974;28;20183;-30
2023/01/18 15:24:39;;;;;;;33.28;5.15;;;;;;;;;;5067853;28;20046;-30
2023/01/18 15:27:07;;;;;;;28.10;5.18;;;;;;;;;;5069011;28;20031;-31
2023/01/18 15:29:40;;;;;;;29.13;5.88;;;;;;;;;;5054520;28;20028;-30
2023/01/18 15:32:15;;;;;;;26.83;5.55;;;;;;;;;;5072842;28;20469;-30
2023/01/18 15:34:46;;;;;;;31.25;5.70;;;;;;;;;;5071716;28;20698;-31
2023/01/18 15:37:16;;;;;;;28.45;4.95;;;;;;;;;;5053919;28;20112;-31